sensor_id;sensor_type;location;lat;lon;timestamp;P1;durP1;ratioP1;P2;durP2;ratioP2
46006;SDS011;31738;50.188;8.524;2023-07-30T00:01:52;3.58;;;2.53;;
46006;SDS011;31738;50.188;8.524;2023-07-30T00:04:17;2.08;;;1.88;;
46006;SDS011;31738;50.188;8.524;2023-07-30T00:06:43;2.75;;;1.90;;
46006;SDS011;31738;50.188;8.524;2023-07-30T00:09:08;3.25;;;1.70;;
46006;SDS011;31738;50.188;8.524;2023-07-30T00:11:33;3.95;;;2.15;;
46006;SDS011;31738;50.188;8.524;2023-07-30T00:13:59;4.55;;;1.95;;
46006;SDS011;31738;50.188;8.524;2023-07-30T00:16:27;2.70;;;1.80;;
46006;SDS011;31738;50.188;8.524;2023-07-30T00:18:53;3.28;;;1.80;;
46006;SDS011;31738;50.188;8.524;2023-07-30T00:21:18;2.20;;;2.00;;
46006;SDS011;31738;50.188;8.524;2023-07-30T00:23:44;1.70;;;1.30;;
46006;SDS011;31738;50.188;8.524;2023-07-30T00:26:09;4.93;;;1.80;;
46006;SDS011;31738;50.188;8.524;2023-07-30T00:28:35;3.05;;;1.80;;
46006;SDS011;31738;50.188;8.524;2023-07-30T00:31:00;2.05;;;1.80;;
46006;SDS011;31738;50.188;8.524;2023-07-30T00:33:25;2.22;;;1.50;;
46006;SDS011;31738;50.188;8.524;2023-07-30T00:35:51;3.97;;;1.73;;
46006;SDS011;31738;50.188;8.524;2023-07-30T00:38:17;4.22;;;1.70;;
46006;SDS011;31738;50.188;8.524;2023-07-30T00:40:43;2.55;;;1.60;;
46006;SDS011;31738;50.188;8.524;2023-07-30T00:43:09;2.83;;;1.80;;
46006;SDS011;31738;50.188;8.524;2023-07-30T00:45:35;1.70;;;1.45;;
46006;SDS011;31738;50.188;8.524;2023-07-30T00:48:03;1.60;;;1.50;;
46006;SDS011;31738;50.188;8.524;2023-07-30T00:50:29;1.67;;;1.40;;
46006;SDS011;31738;50.188;8.524;2023-07-30T00:52:56;2.83;;;1.70;;
46006;SDS011;31738;50.188;8.524;2023-07-30T00:55:22;2.05;;;1.60;;
46006;SDS011;31738;50.188;8.524;2023-07-30T00:57:48;3.42;;;2.00;;
46006;SDS011;31738;50.188;8.524;2023-07-30T01:00:14;1.35;;;1.23;;
46006;SDS011;31738;50.188;8.524;2023-07-30T01:02:41;2.33;;;1.73;;
46006;SDS011;31738;50.188;8.524;2023-07-30T01:05:07;1.73;;;1.40;;
46006;SDS011;31738;50.188;8.524;2023-07-30T01:07:32;5.78;;;1.50;;
46006;SDS011;31738;50.188;8.524;2023-07-30T01:09:59;2.65;;;1.77;;
46006;SDS011;31738;50.188;8.524;2023-07-30T01:12:26;1.75;;;1.35;;
46006;SDS011;31738;50.188;8.524;2023-07-30T01:14:55;3.40;;;1.30;;
46006;SDS011;31738;50.188;8.524;2023-07-30T01:17:21;4.10;;;1.67;;
46006;SDS011;31738;50.188;8.524;2023-07-30T01:19:47;4.82;;;1.60;;
46006;SDS011;31738;50.188;8.524;2023-07-30T01:22:19;2.53;;;1.27;;
46006;SDS011;31738;50.188;8.524;2023-07-30T01:24:46;4.22;;;1.55;;
46006;SDS011;31738;50.188;8.524;2023-07-30T01:27:14;1.85;;;1.52;;
46006;SDS011;31738;50.188;8.524;2023-07-30T01:29:51;3.50;;;1.63;;
46006;SDS011;31738;50.188;8.524;2023-07-30T01:32:24;4.95;;;1.80;;
46006;SDS011;31738;50.188;8.524;2023-07-30T01:34:52;2.67;;;1.67;;
46006;SDS011;31738;50.188;8.524;2023-07-30T01:37:19;1.75;;;1.50;;
46006;SDS011;31738;50.188;8.524;2023-07-30T01:39:45;2.03;;;1.50;;
46006;SDS011;31738;50.188;8.524;2023-07-30T01:42:13;1.98;;;1.50;;
46006;SDS011;31738;50.188;8.524;2023-07-30T01:44:39;2.75;;;1.52;;
46006;SDS011;31738;50.188;8.524;2023-07-30T01:47:05;4.22;;;1.60;;
46006;SDS011;31738;50.188;8.524;2023-07-30T01:49:30;3.40;;;1.65;;
46006;SDS011;31738;50.188;8.524;2023-07-30T01:51:56;4.45;;;1.80;;
46006;SDS011;31738;50.188;8.524;2023-07-30T01:54:21;4.05;;;1.80;;
46006;SDS011;31738;50.188;8.524;2023-07-30T01:56:47;3.00;;;1.70;;
46006;SDS011;31738;50.188;8.524;2023-07-30T01:59:12;7.82;;;1.88;;
46006;SDS011;31738;50.188;8.524;2023-07-30T02:01:38;1.42;;;1.30;;
46006;SDS011;31738;50.188;8.524;2023-07-30T02:04:03;3.83;;;1.70;;
46006;SDS011;31738;50.188;8.524;2023-07-30T02:06:29;2.60;;;1.70;;
46006;SDS011;31738;50.188;8.524;2023-07-30T02:08:54;2.33;;;1.50;;
46006;SDS011;31738;50.188;8.524;2023-07-30T02:11:20;4.00;;;1.73;;
46006;SDS011;31738;50.188;8.524;2023-07-30T02:13:45;2.97;;;1.98;;
46006;SDS011;31738;50.188;8.524;2023-07-30T02:16:11;3.25;;;1.60;;
46006;SDS011;31738;50.188;8.524;2023-07-30T02:18:36;2.65;;;1.50;;
46006;SDS011;31738;50.188;8.524;2023-07-30T02:21:02;4.15;;;2.00;;
46006;SDS011;31738;50.188;8.524;2023-07-30T02:23:28;4.57;;;1.70;;
46006;SDS011;31738;50.188;8.524;2023-07-30T02:25:53;3.47;;;1.77;;
46006;SDS011;31738;50.188;8.524;2023-07-30T02:28:18;3.83;;;1.77;;
46006;SDS011;31738;50.188;8.524;2023-07-30T02:30:44;3.90;;;1.77;;
46006;SDS011;31738;50.188;8.524;2023-07-30T02:33:09;2.50;;;1.83;;
46006;SDS011;31738;50.188;8.524;2023-07-30T02:35:35;3.40;;;1.92;;
46006;SDS011;31738;50.188;8.524;2023-07-30T02:38:00;3.97;;;2.05;;
46006;SDS011;31738;50.188;8.524;2023-07-30T02:40:26;3.15;;;1.70;;
46006;SDS011;31738;50.188;8.524;2023-07-30T02:42:51;4.07;;;2.25;;
46006;SDS011;31738;50.188;8.524;2023-07-30T02:45:17;5.15;;;2.60;;
46006;SDS011;31738;50.188;8.524;2023-07-30T02:47:43;4.57;;;1.83;;
46006;SDS011;31738;50.188;8.524;2023-07-30T02:50:09;4.28;;;1.83;;
46006;SDS011;31738;50.188;8.524;2023-07-30T02:52:34;3.22;;;1.98;;
46006;SDS011;31738;50.188;8.524;2023-07-30T02:55:00;2.78;;;2.00;;
46006;SDS011;31738;50.188;8.524;2023-07-30T02:57:25;5.30;;;2.05;;
46006;SDS011;31738;50.188;8.524;2023-07-30T02:59:51;4.18;;;1.92;;
46006;SDS011;31738;50.188;8.524;2023-07-30T03:02:16;2.50;;;1.67;;
46006;SDS011;31738;50.188;8.524;2023-07-30T03:04:42;5.65;;;2.00;;
46006;SDS011;31738;50.188;8.524;2023-07-30T03:10:26;5.85;;;2.30;;
46006;SDS011;31738;50.188;8.524;2023-07-30T03:12:51;3.55;;;2.05;;
46006;SDS011;31738;50.188;8.524;2023-07-30T03:15:17;4.03;;;1.55;;
46006;SDS011;31738;50.188;8.524;2023-07-30T03:17:42;2.40;;;2.00;;
46006;SDS011;31738;50.188;8.524;2023-07-30T03:20:07;3.30;;;1.80;;
46006;SDS011;31738;50.188;8.524;2023-07-30T03:22:34;4.63;;;2.30;;
46006;SDS011;31738;50.188;8.524;2023-07-30T03:24:59;2.83;;;1.98;;
46006;SDS011;31738;50.188;8.524;2023-07-30T03:27:25;5.07;;;1.80;;
46006;SDS011;31738;50.188;8.524;2023-07-30T03:29:50;3.22;;;1.95;;
46006;SDS011;31738;50.188;8.524;2023-07-30T03:32:16;4.65;;;1.90;;
46006;SDS011;31738;50.188;8.524;2023-07-30T03:34:41;3.38;;;1.80;;
46006;SDS011;31738;50.188;8.524;2023-07-30T03:37:07;3.40;;;2.08;;
46006;SDS011;31738;50.188;8.524;2023-07-30T03:39:32;6.45;;;2.05;;
46006;SDS011;31738;50.188;8.524;2023-07-30T03:41:57;3.15;;;1.80;;
46006;SDS011;31738;50.188;8.524;2023-07-30T03:44:23;2.53;;;1.88;;
46006;SDS011;31738;50.188;8.524;2023-07-30T03:46:48;5.07;;;2.00;;
46006;SDS011;31738;50.188;8.524;2023-07-30T03:49:14;8.57;;;2.30;;
46006;SDS011;31738;50.188;8.524;2023-07-30T03:51:40;3.50;;;2.00;;
46006;SDS011;31738;50.188;8.524;2023-07-30T03:54:06;2.63;;;2.08;;
46006;SDS011;31738;50.188;8.524;2023-07-30T03:56:31;3.10;;;1.90;;
46006;SDS011;31738;50.188;8.524;2023-07-30T03:58:57;3.78;;;2.15;;
46006;SDS011;31738;50.188;8.524;2023-07-30T04:01:23;4.93;;;2.00;;
46006;SDS011;31738;50.188;8.524;2023-07-30T04:03:48;7.75;;;2.33;;
46006;SDS011;31738;50.188;8.524;2023-07-30T04:06:14;3.63;;;2.10;;
46006;SDS011;31738;50.188;8.524;2023-07-30T04:08:39;3.58;;;2.05;;
46006;SDS011;31738;50.188;8.524;2023-07-30T04:11:05;4.40;;;2.22;;
46006;SDS011;31738;50.188;8.524;2023-07-30T04:13:31;8.32;;;2.15;;
46006;SDS011;31738;50.188;8.524;2023-07-30T04:15:56;4.07;;;2.13;;
46006;SDS011;31738;50.188;8.524;2023-07-30T04:18:22;7.60;;;2.38;;
46006;SDS011;31738;50.188;8.524;2023-07-30T04:20:48;4.00;;;2.00;;
46006;SDS011;31738;50.188;8.524;2023-07-30T04:23:13;3.58;;;1.95;;
46006;SDS011;31738;50.188;8.524;2023-07-30T04:25:39;4.25;;;1.88;;
46006;SDS011;31738;50.188;8.524;2023-07-30T04:28:05;6.35;;;1.77;;
46006;SDS011;31738;50.188;8.524;2023-07-30T04:30:31;3.17;;;1.88;;
46006;SDS011;31738;50.188;8.524;2023-07-30T04:32:57;9.55;;;2.47;;
46006;SDS011;31738;50.188;8.524;2023-07-30T04:35:23;3.47;;;2.42;;
46006;SDS011;31738;50.188;8.524;2023-07-30T04:37:48;4.28;;;1.98;;
46006;SDS011;31738;50.188;8.524;2023-07-30T04:40:14;2.67;;;1.98;;
46006;SDS011;31738;50.188;8.524;2023-07-30T04:42:40;4.07;;;2.17;;
46006;SDS011;31738;50.188;8.524;2023-07-30T04:45:05;3.42;;;2.10;;
46006;SDS011;31738;50.188;8.524;2023-07-30T04:47:34;5.05;;;2.20;;
46006;SDS011;31738;50.188;8.524;2023-07-30T04:50:00;3.45;;;2.03;;
46006;SDS011;31738;50.188;8.524;2023-07-30T04:52:25;4.03;;;2.00;;
46006;SDS011;31738;50.188;8.524;2023-07-30T04:54:50;3.13;;;1.77;;
46006;SDS011;31738;50.188;8.524;2023-07-30T04:57:16;4.38;;;2.20;;
46006;SDS011;31738;50.188;8.524;2023-07-30T04:59:41;4.15;;;2.00;;
46006;SDS011;31738;50.188;8.524;2023-07-30T05:02:07;3.58;;;2.05;;
46006;SDS011;31738;50.188;8.524;2023-07-30T05:04:32;5.18;;;2.13;;
46006;SDS011;31738;50.188;8.524;2023-07-30T05:06:58;9.48;;;2.28;;
46006;SDS011;31738;50.188;8.524;2023-07-30T05:09:23;4.65;;;2.40;;
46006;SDS011;31738;50.188;8.524;2023-07-30T05:11:48;6.07;;;2.40;;
46006;SDS011;31738;50.188;8.524;2023-07-30T05:14:14;4.53;;;2.03;;
46006;SDS011;31738;50.188;8.524;2023-07-30T05:16:39;2.47;;;2.10;;
46006;SDS011;31738;50.188;8.524;2023-07-30T05:19:05;3.17;;;2.30;;
46006;SDS011;31738;50.188;8.524;2023-07-30T05:21:30;3.72;;;2.08;;
46006;SDS011;31738;50.188;8.524;2023-07-30T05:23:56;3.78;;;1.88;;
46006;SDS011;31738;50.188;8.524;2023-07-30T05:26:21;3.72;;;1.90;;
46006;SDS011;31738;50.188;8.524;2023-07-30T05:28:47;4.43;;;2.10;;
46006;SDS011;31738;50.188;8.524;2023-07-30T05:31:12;3.83;;;2.05;;
46006;SDS011;31738;50.188;8.524;2023-07-30T05:33:38;6.43;;;1.95;;
46006;SDS011;31738;50.188;8.524;2023-07-30T05:36:03;2.83;;;2.40;;
46006;SDS011;31738;50.188;8.524;2023-07-30T05:38:29;2.90;;;1.95;;
46006;SDS011;31738;50.188;8.524;2023-07-30T05:40:54;2.78;;;2.15;;
46006;SDS011;31738;50.188;8.524;2023-07-30T05:43:19;3.17;;;2.10;;
46006;SDS011;31738;50.188;8.524;2023-07-30T05:45:45;6.35;;;2.20;;
46006;SDS011;31738;50.188;8.524;2023-07-30T05:48:10;2.50;;;2.10;;
46006;SDS011;31738;50.188;8.524;2023-07-30T05:50:36;4.50;;;2.30;;
46006;SDS011;31738;50.188;8.524;2023-07-30T05:53:01;3.00;;;2.17;;
46006;SDS011;31738;50.188;8.524;2023-07-30T05:55:27;4.32;;;2.13;;
46006;SDS011;31738;50.188;8.524;2023-07-30T05:57:52;3.53;;;2.10;;
46006;SDS011;31738;50.188;8.524;2023-07-30T06:00:18;2.92;;;1.85;;
46006;SDS011;31738;50.188;8.524;2023-07-30T06:02:44;4.50;;;2.33;;
46006;SDS011;31738;50.188;8.524;2023-07-30T06:05:09;2.72;;;1.60;;
46006;SDS011;31738;50.188;8.524;2023-07-30T06:07:35;5.75;;;1.77;;
46006;SDS011;31738;50.188;8.524;2023-07-30T06:10:01;3.50;;;1.77;;
46006;SDS011;31738;50.188;8.524;2023-07-30T06:12:26;5.70;;;1.80;;
46006;SDS011;31738;50.188;8.524;2023-07-30T06:14:52;6.93;;;2.15;;
46006;SDS011;31738;50.188;8.524;2023-07-30T06:17:17;3.80;;;2.20;;
46006;SDS011;31738;50.188;8.524;2023-07-30T06:19:42;6.22;;;1.60;;
46006;SDS011;31738;50.188;8.524;2023-07-30T06:22:08;2.38;;;1.60;;
46006;SDS011;31738;50.188;8.524;2023-07-30T06:24:33;3.47;;;1.98;;
46006;SDS011;31738;50.188;8.524;2023-07-30T06:26:59;3.10;;;1.73;;
46006;SDS011;31738;50.188;8.524;2023-07-30T06:29:24;2.38;;;1.58;;
46006;SDS011;31738;50.188;8.524;2023-07-30T06:31:50;4.20;;;2.10;;
46006;SDS011;31738;50.188;8.524;2023-07-30T06:34:16;2.78;;;1.65;;
46006;SDS011;31738;50.188;8.524;2023-07-30T06:36:41;4.88;;;1.70;;
46006;SDS011;31738;50.188;8.524;2023-07-30T06:39:07;2.95;;;1.50;;
46006;SDS011;31738;50.188;8.524;2023-07-30T06:41:32;2.30;;;1.40;;
46006;SDS011;31738;50.188;8.524;2023-07-30T06:43:59;3.42;;;1.63;;
46006;SDS011;31738;50.188;8.524;2023-07-30T06:46:24;5.32;;;1.90;;
46006;SDS011;31738;50.188;8.524;2023-07-30T06:48:50;3.15;;;1.90;;
46006;SDS011;31738;50.188;8.524;2023-07-30T06:51:17;2.83;;;1.52;;
46006;SDS011;31738;50.188;8.524;2023-07-30T06:53:44;3.08;;;1.90;;
46006;SDS011;31738;50.188;8.524;2023-07-30T06:56:09;3.08;;;1.80;;
46006;SDS011;31738;50.188;8.524;2023-07-30T06:58:35;3.78;;;1.80;;
46006;SDS011;31738;50.188;8.524;2023-07-30T07:01:00;4.82;;;1.70;;
46006;SDS011;31738;50.188;8.524;2023-07-30T07:03:26;3.17;;;1.50;;
46006;SDS011;31738;50.188;8.524;2023-07-30T07:05:55;3.35;;;1.67;;
46006;SDS011;31738;50.188;8.524;2023-07-30T07:08:21;2.67;;;1.50;;
46006;SDS011;31738;50.188;8.524;2023-07-30T07:10:47;1.70;;;1.52;;
46006;SDS011;31738;50.188;8.524;2023-07-30T07:13:13;4.13;;;1.50;;
46006;SDS011;31738;50.188;8.524;2023-07-30T07:15:43;3.88;;;1.50;;
46006;SDS011;31738;50.188;8.524;2023-07-30T07:18:10;5.32;;;1.70;;
46006;SDS011;31738;50.188;8.524;2023-07-30T07:20:36;3.00;;;1.45;;
46006;SDS011;31738;50.188;8.524;2023-07-30T07:23:02;3.03;;;1.60;;
46006;SDS011;31738;50.188;8.524;2023-07-30T07:25:27;3.47;;;1.48;;
46006;SDS011;31738;50.188;8.524;2023-07-30T07:27:53;4.10;;;1.67;;
46006;SDS011;31738;50.188;8.524;2023-07-30T07:30:18;3.75;;;1.55;;
46006;SDS011;31738;50.188;8.524;2023-07-30T07:32:44;3.53;;;1.48;;
46006;SDS011;31738;50.188;8.524;2023-07-30T07:35:09;5.28;;;1.90;;
46006;SDS011;31738;50.188;8.524;2023-07-30T07:37:35;4.75;;;1.60;;
46006;SDS011;31738;50.188;8.524;2023-07-30T07:40:01;2.13;;;1.33;;
46006;SDS011;31738;50.188;8.524;2023-07-30T07:42:26;2.67;;;1.80;;
46006;SDS011;31738;50.188;8.524;2023-07-30T07:44:52;3.95;;;2.08;;
46006;SDS011;31738;50.188;8.524;2023-07-30T07:47:17;4.38;;;1.50;;
46006;SDS011;31738;50.188;8.524;2023-07-30T07:49:43;4.28;;;1.80;;
46006;SDS011;31738;50.188;8.524;2023-07-30T07:52:08;2.25;;;1.50;;
46006;SDS011;31738;50.188;8.524;2023-07-30T07:54:34;2.90;;;1.50;;
46006;SDS011;31738;50.188;8.524;2023-07-30T07:56:59;2.10;;;1.50;;
46006;SDS011;31738;50.188;8.524;2023-07-30T07:59:25;3.03;;;1.70;;
46006;SDS011;31738;50.188;8.524;2023-07-30T08:01:50;3.70;;;1.30;;
46006;SDS011;31738;50.188;8.524;2023-07-30T08:04:16;3.20;;;1.60;;
46006;SDS011;31738;50.188;8.524;2023-07-30T08:06:41;2.33;;;1.30;;
46006;SDS011;31738;50.188;8.524;2023-07-30T08:09:07;4.00;;;1.73;;
46006;SDS011;31738;50.188;8.524;2023-07-30T08:11:33;2.10;;;1.52;;
46006;SDS011;31738;50.188;8.524;2023-07-30T08:13:58;3.47;;;1.60;;
46006;SDS011;31738;50.188;8.524;2023-07-30T08:16:24;4.30;;;1.77;;
46006;SDS011;31738;50.188;8.524;2023-07-30T08:18:50;3.45;;;1.88;;
46006;SDS011;31738;50.188;8.524;2023-07-30T08:21:15;1.98;;;1.70;;
46006;SDS011;31738;50.188;8.524;2023-07-30T08:23:42;3.47;;;2.25;;
46006;SDS011;31738;50.188;8.524;2023-07-30T08:26:08;3.80;;;1.60;;
46006;SDS011;31738;50.188;8.524;2023-07-30T08:28:34;2.95;;;1.70;;
46006;SDS011;31738;50.188;8.524;2023-07-30T08:31:02;2.60;;;1.90;;
46006;SDS011;31738;50.188;8.524;2023-07-30T08:33:28;3.55;;;1.95;;
46006;SDS011;31738;50.188;8.524;2023-07-30T08:35:58;3.83;;;1.75;;
46006;SDS011;31738;50.188;8.524;2023-07-30T08:38:24;2.10;;;1.83;;
46006;SDS011;31738;50.188;8.524;2023-07-30T08:40:50;3.22;;;1.95;;
46006;SDS011;31738;50.188;8.524;2023-07-30T08:43:17;3.25;;;2.13;;
46006;SDS011;31738;50.188;8.524;2023-07-30T08:45:43;2.35;;;1.75;;
46006;SDS011;31738;50.188;8.524;2023-07-30T08:48:09;3.80;;;2.10;;
46006;SDS011;31738;50.188;8.524;2023-07-30T08:50:35;2.85;;;2.00;;
46006;SDS011;31738;50.188;8.524;2023-07-30T08:53:01;3.00;;;1.95;;
46006;SDS011;31738;50.188;8.524;2023-07-30T08:55:28;4.28;;;2.20;;
46006;SDS011;31738;50.188;8.524;2023-07-30T08:57:58;4.38;;;2.00;;
46006;SDS011;31738;50.188;8.524;2023-07-30T09:00:30;3.50;;;2.20;;
46006;SDS011;31738;50.188;8.524;2023-07-30T09:02:59;4.28;;;2.10;;
46006;SDS011;31738;50.188;8.524;2023-07-30T09:05:25;2.63;;;2.15;;
46006;SDS011;31738;50.188;8.524;2023-07-30T09:07:55;5.07;;;2.00;;
46006;SDS011;31738;50.188;8.524;2023-07-30T09:10:21;5.93;;;1.95;;
46006;SDS011;31738;50.188;8.524;2023-07-30T09:12:51;2.90;;;1.75;;
46006;SDS011;31738;50.188;8.524;2023-07-30T09:15:19;2.53;;;1.80;;
46006;SDS011;31738;50.188;8.524;2023-07-30T09:20:20;4.10;;;2.38;;
46006;SDS011;31738;50.188;8.524;2023-07-30T09:22:46;3.05;;;2.00;;
46006;SDS011;31738;50.188;8.524;2023-07-30T09:25:14;3.90;;;2.40;;
46006;SDS011;31738;50.188;8.524;2023-07-30T09:27:41;7.53;;;2.53;;
46006;SDS011;31738;50.188;8.524;2023-07-30T09:30:06;6.53;;;2.72;;
46006;SDS011;31738;50.188;8.524;2023-07-30T09:32:33;3.97;;;2.88;;
46006;SDS011;31738;50.188;8.524;2023-07-30T09:35:03;5.95;;;3.10;;
46006;SDS011;31738;50.188;8.524;2023-07-30T09:37:33;4.07;;;3.10;;
46006;SDS011;31738;50.188;8.524;2023-07-30T09:40:03;4.85;;;3.35;;
46006;SDS011;31738;50.188;8.524;2023-07-30T09:42:38;12.82;;;3.50;;
46006;SDS011;31738;50.188;8.524;2023-07-30T09:45:05;13.63;;;3.53;;
46006;SDS011;31738;50.188;8.524;2023-07-30T09:47:32;9.35;;;2.70;;
46006;SDS011;31738;50.188;8.524;2023-07-30T09:49:59;3.22;;;1.20;;
46006;SDS011;31738;50.188;8.524;2023-07-30T09:52:25;2.70;;;0.80;;
46006;SDS011;31738;50.188;8.524;2023-07-30T09:54:51;1.27;;;0.63;;
46006;SDS011;31738;50.188;8.524;2023-07-30T09:57:17;4.43;;;0.75;;
46006;SDS011;31738;50.188;8.524;2023-07-30T09:59:43;1.17;;;0.63;;
46006;SDS011;31738;50.188;8.524;2023-07-30T10:02:08;2.25;;;0.70;;
46006;SDS011;31738;50.188;8.524;2023-07-30T10:04:37;1.40;;;0.60;;
46006;SDS011;31738;50.188;8.524;2023-07-30T10:07:10;0.93;;;0.63;;
46006;SDS011;31738;50.188;8.524;2023-07-30T10:09:40;4.00;;;0.70;;
46006;SDS011;31738;50.188;8.524;2023-07-30T10:12:12;1.10;;;0.73;;
46006;SDS011;31738;50.188;8.524;2023-07-30T10:14:41;1.50;;;0.77;;
46006;SDS011;31738;50.188;8.524;2023-07-30T10:17:09;3.63;;;1.10;;
46006;SDS011;31738;50.188;8.524;2023-07-30T10:19:36;3.55;;;0.95;;
46006;SDS011;31738;50.188;8.524;2023-07-30T10:24:59;6.30;;;1.05;;
46006;SDS011;31738;50.188;8.524;2023-07-30T10:27:38;4.03;;;1.20;;
46006;SDS011;31738;50.188;8.524;2023-07-30T10:30:15;2.25;;;1.00;;
46006;SDS011;31738;50.188;8.524;2023-07-30T10:32:42;3.80;;;1.00;;
46006;SDS011;31738;50.188;8.524;2023-07-30T10:35:43;1.55;;;0.95;;
46006;SDS011;31738;50.188;8.524;2023-07-30T10:41:05;2.70;;;1.17;;
46006;SDS011;31738;50.188;8.524;2023-07-30T10:43:35;5.82;;;1.80;;
46006;SDS011;31738;50.188;8.524;2023-07-30T10:46:01;4.85;;;1.23;;
46006;SDS011;31738;50.188;8.524;2023-07-30T10:48:30;3.13;;;1.30;;
46006;SDS011;31738;50.188;8.524;2023-07-30T10:51:00;3.78;;;1.38;;
46006;SDS011;31738;50.188;8.524;2023-07-30T10:53:27;5.20;;;1.52;;
46006;SDS011;31738;50.188;8.524;2023-07-30T10:55:53;4.25;;;1.65;;
46006;SDS011;31738;50.188;8.524;2023-07-30T10:58:20;4.75;;;1.65;;
46006;SDS011;31738;50.188;8.524;2023-07-30T11:00:46;4.78;;;1.45;;
46006;SDS011;31738;50.188;8.524;2023-07-30T11:03:11;8.32;;;1.67;;
46006;SDS011;31738;50.188;8.524;2023-07-30T11:05:40;7.18;;;1.80;;
46006;SDS011;31738;50.188;8.524;2023-07-30T11:08:05;4.18;;;1.33;;
46006;SDS011;31738;50.188;8.524;2023-07-30T11:10:30;5.35;;;1.40;;
46006;SDS011;31738;50.188;8.524;2023-07-30T11:12:56;6.32;;;3.10;;
46006;SDS011;31738;50.188;8.524;2023-07-30T11:15:22;7.95;;;2.40;;
46006;SDS011;31738;50.188;8.524;2023-07-30T11:17:51;6.43;;;1.50;;
46006;SDS011;31738;50.188;8.524;2023-07-30T11:20:23;7.60;;;1.88;;
46006;SDS011;31738;50.188;8.524;2023-07-30T11:22:52;5.85;;;1.40;;
46006;SDS011;31738;50.188;8.524;2023-07-30T11:25:18;3.47;;;1.33;;
46006;SDS011;31738;50.188;8.524;2023-07-30T11:27:45;3.28;;;1.58;;
46006;SDS011;31738;50.188;8.524;2023-07-30T11:30:11;4.68;;;1.60;;
46006;SDS011;31738;50.188;8.524;2023-07-30T11:32:36;6.22;;;1.60;;
46006;SDS011;31738;50.188;8.524;2023-07-30T11:35:04;7.60;;;1.60;;
46006;SDS011;31738;50.188;8.524;2023-07-30T11:37:31;7.25;;;1.52;;
46006;SDS011;31738;50.188;8.524;2023-07-30T11:39:57;7.30;;;2.50;;
46006;SDS011;31738;50.188;8.524;2023-07-30T11:42:23;5.72;;;2.25;;
46006;SDS011;31738;50.188;8.524;2023-07-30T11:44:49;6.80;;;2.53;;
46006;SDS011;31738;50.188;8.524;2023-07-30T11:47:23;8.48;;;3.38;;
46006;SDS011;31738;50.188;8.524;2023-07-30T11:49:55;4.60;;;2.47;;
46006;SDS011;31738;50.188;8.524;2023-07-30T11:52:22;7.45;;;1.65;;
46006;SDS011;31738;50.188;8.524;2023-07-30T11:54:47;3.88;;;1.50;;
46006;SDS011;31738;50.188;8.524;2023-07-30T11:57:13;6.63;;;1.65;;
46006;SDS011;31738;50.188;8.524;2023-07-30T11:59:38;6.55;;;1.55;;
46006;SDS011;31738;50.188;8.524;2023-07-30T12:02:07;3.72;;;1.42;;
46006;SDS011;31738;50.188;8.524;2023-07-30T12:04:45;5.30;;;1.52;;
46006;SDS011;31738;50.188;8.524;2023-07-30T12:07:10;5.75;;;1.70;;
46006;SDS011;31738;50.188;8.524;2023-07-30T12:09:36;5.50;;;1.70;;
46006;SDS011;31738;50.188;8.524;2023-07-30T12:12:03;6.10;;;1.70;;
46006;SDS011;31738;50.188;8.524;2023-07-30T12:14:29;4.35;;;1.80;;
46006;SDS011;31738;50.188;8.524;2023-07-30T12:17:08;4.95;;;1.58;;
46006;SDS011;31738;50.188;8.524;2023-07-30T12:19:34;4.32;;;1.70;;
46006;SDS011;31738;50.188;8.524;2023-07-30T12:22:01;3.75;;;1.45;;
46006;SDS011;31738;50.188;8.524;2023-07-30T12:24:27;6.40;;;1.83;;
46006;SDS011;31738;50.188;8.524;2023-07-30T12:26:52;6.03;;;1.50;;
46006;SDS011;31738;50.188;8.524;2023-07-30T12:29:18;7.22;;;2.00;;
46006;SDS011;31738;50.188;8.524;2023-07-30T12:31:43;4.50;;;1.50;;
46006;SDS011;31738;50.188;8.524;2023-07-30T12:34:11;5.45;;;1.65;;
46006;SDS011;31738;50.188;8.524;2023-07-30T12:36:36;6.45;;;1.70;;
46006;SDS011;31738;50.188;8.524;2023-07-30T12:39:02;7.05;;;1.90;;
46006;SDS011;31738;50.188;8.524;2023-07-30T12:41:28;4.00;;;1.33;;
46006;SDS011;31738;50.188;8.524;2023-07-30T12:43:55;6.40;;;1.60;;
46006;SDS011;31738;50.188;8.524;2023-07-30T12:46:22;5.70;;;1.60;;
46006;SDS011;31738;50.188;8.524;2023-07-30T12:48:48;7.28;;;1.17;;
46006;SDS011;31738;50.188;8.524;2023-07-30T12:51:13;7.78;;;1.70;;
46006;SDS011;31738;50.188;8.524;2023-07-30T12:53:39;7.72;;;2.03;;
46006;SDS011;31738;50.188;8.524;2023-07-30T12:56:05;5.28;;;1.48;;
46006;SDS011;31738;50.188;8.524;2023-07-30T12:58:30;7.55;;;1.70;;
46006;SDS011;31738;50.188;8.524;2023-07-30T13:00:56;5.72;;;1.27;;
46006;SDS011;31738;50.188;8.524;2023-07-30T13:03:21;5.00;;;2.10;;
46006;SDS011;31738;50.188;8.524;2023-07-30T13:05:46;4.30;;;1.42;;
46006;SDS011;31738;50.188;8.524;2023-07-30T13:08:12;4.78;;;1.48;;
46006;SDS011;31738;50.188;8.524;2023-07-30T13:10:37;4.68;;;1.88;;
46006;SDS011;31738;50.188;8.524;2023-07-30T13:13:03;6.95;;;1.42;;
46006;SDS011;31738;50.188;8.524;2023-07-30T13:15:28;8.20;;;1.70;;
46006;SDS011;31738;50.188;8.524;2023-07-30T13:17:54;4.65;;;1.35;;
46006;SDS011;31738;50.188;8.524;2023-07-30T13:20:19;6.15;;;1.35;;
46006;SDS011;31738;50.188;8.524;2023-07-30T13:22:45;2.85;;;1.40;;
46006;SDS011;31738;50.188;8.524;2023-07-30T13:25:10;4.40;;;1.60;;
46006;SDS011;31738;50.188;8.524;2023-07-30T13:27:36;7.45;;;1.40;;
46006;SDS011;31738;50.188;8.524;2023-07-30T13:30:01;6.13;;;1.70;;
46006;SDS011;31738;50.188;8.524;2023-07-30T13:32:27;7.25;;;1.92;;
46006;SDS011;31738;50.188;8.524;2023-07-30T13:34:53;4.55;;;1.90;;
46006;SDS011;31738;50.188;8.524;2023-07-30T13:37:18;9.05;;;2.42;;
46006;SDS011;31738;50.188;8.524;2023-07-30T13:39:44;15.07;;;6.22;;
46006;SDS011;31738;50.188;8.524;2023-07-30T13:42:09;15.73;;;6.85;;
46006;SDS011;31738;50.188;8.524;2023-07-30T13:44:35;8.90;;;2.80;;
46006;SDS011;31738;50.188;8.524;2023-07-30T13:47:00;8.27;;;2.92;;
46006;SDS011;31738;50.188;8.524;2023-07-30T13:49:25;5.30;;;1.70;;
46006;SDS011;31738;50.188;8.524;2023-07-30T13:51:51;10.95;;;3.72;;
46006;SDS011;31738;50.188;8.524;2023-07-30T13:54:16;9.25;;;2.78;;
46006;SDS011;31738;50.188;8.524;2023-07-30T13:56:42;7.35;;;1.92;;
46006;SDS011;31738;50.188;8.524;2023-07-30T13:59:07;4.15;;;1.85;;
46006;SDS011;31738;50.188;8.524;2023-07-30T14:01:33;7.00;;;1.80;;
46006;SDS011;31738;50.188;8.524;2023-07-30T14:03:58;7.72;;;1.88;;
46006;SDS011;31738;50.188;8.524;2023-07-30T14:06:23;8.38;;;2.00;;
46006;SDS011;31738;50.188;8.524;2023-07-30T14:08:49;4.25;;;1.58;;
46006;SDS011;31738;50.188;8.524;2023-07-30T14:11:14;3.80;;;1.65;;
46006;SDS011;31738;50.188;8.524;2023-07-30T14:13:40;5.63;;;1.70;;
46006;SDS011;31738;50.188;8.524;2023-07-30T14:16:06;7.40;;;2.17;;
46006;SDS011;31738;50.188;8.524;2023-07-30T14:18:31;5.85;;;1.75;;
46006;SDS011;31738;50.188;8.524;2023-07-30T14:20:56;3.33;;;1.10;;
46006;SDS011;31738;50.188;8.524;2023-07-30T14:23:22;4.15;;;1.60;;
46006;SDS011;31738;50.188;8.524;2023-07-30T14:25:47;10.30;;;2.00;;
46006;SDS011;31738;50.188;8.524;2023-07-30T14:28:13;4.53;;;1.30;;
46006;SDS011;31738;50.188;8.524;2023-07-30T14:30:40;5.82;;;1.52;;
46006;SDS011;31738;50.188;8.524;2023-07-30T14:33:09;4.85;;;1.65;;
46006;SDS011;31738;50.188;8.524;2023-07-30T14:35:36;5.30;;;1.33;;
46006;SDS011;31738;50.188;8.524;2023-07-30T14:38:03;5.68;;;1.58;;
46006;SDS011;31738;50.188;8.524;2023-07-30T14:40:29;5.70;;;1.20;;
46006;SDS011;31738;50.188;8.524;2023-07-30T14:42:55;5.25;;;1.48;;
46006;SDS011;31738;50.188;8.524;2023-07-30T14:45:21;6.22;;;1.60;;
46006;SDS011;31738;50.188;8.524;2023-07-30T14:47:46;5.43;;;1.40;;
46006;SDS011;31738;50.188;8.524;2023-07-30T14:50:12;3.08;;;1.42;;
46006;SDS011;31738;50.188;8.524;2023-07-30T14:52:38;5.53;;;1.40;;
46006;SDS011;31738;50.188;8.524;2023-07-30T14:55:04;5.70;;;1.80;;